sensor_id;sensor_type;location;lat;lon;timestamp;pressure;altitude;pressure_sealevel;temperature;humidity
15568;BME280;7885;42.596;23.044;2022-09-09T00:02:13;93200.47;;;18.63;92.04
15568;BME280;7885;42.596;23.044;2022-09-09T00:04:54;93208.53;;;18.70;90.99
15568;BME280;7885;42.596;23.044;2022-09-09T00:07:33;93206.88;;;18.73;89.73
15568;BME280;7885;42.596;23.044;2022-09-09T00:10:15;93203.88;;;18.54;91.19
15568;BME280;7885;42.596;23.044;2022-09-09T00:12:51;93209.09;;;18.65;90.55
15568;BME280;7885;42.596;23.044;2022-09-09T00:15:22;93203.59;;;18.65;89.60
15568;BME280;7885;42.596;23.044;2022-09-09T00:17:54;93192.66;;;18.61;91.10
15568;BME280;7885;42.596;23.044;2022-09-09T00:20:29;93164.16;;;18.52;91.21
15568;BME280;7885;42.596;23.044;2022-09-09T00:23:00;93192.44;;;18.69;91.29
15568;BME280;7885;42.596;23.044;2022-09-09T00:25:37;93189.91;;;18.61;91.21
15568;BME280;7885;42.596;23.044;2022-09-09T00:28:13;93189.53;;;18.59;91.57
15568;BME280;7885;42.596;23.044;2022-09-09T00:30:44;93146.25;;;18.31;92.10
15568;BME280;7885;42.596;23.044;2022-09-09T00:33:15;93192.66;;;18.61;91.25
15568;BME280;7885;42.596;23.044;2022-09-09T00:35:45;93191.97;;;18.57;91.23
15568;BME280;7885;42.596;23.044;2022-09-09T00:38:15;93174.53;;;18.48;91.79
15568;BME280;7885;42.596;23.044;2022-09-09T00:40:49;93175.75;;;18.59;92.34
15568;BME280;7885;42.596;23.044;2022-09-09T00:43:26;93160.28;;;18.49;91.72
15568;BME280;7885;42.596;23.044;2022-09-09T00:46:23;93184.03;;;18.59;92.71
15568;BME280;7885;42.596;23.044;2022-09-09T00:49:00;93148.47;;;18.36;91.35
15568;BME280;7885;42.596;23.044;2022-09-09T00:51:38;93170.13;;;18.50;91.09
15568;BME280;7885;42.596;23.044;2022-09-09T00:54:20;93167.88;;;18.45;92.19
15568;BME280;7885;42.596;23.044;2022-09-09T00:57:00;93155.47;;;18.25;92.30
15568;BME280;7885;42.596;23.044;2022-09-09T00:59:36;93183.00;;;18.41;93.26
15568;BME280;7885;42.596;23.044;2022-09-09T01:02:13;93177.38;;;18.44;93.75
15568;BME280;7885;42.596;23.044;2022-09-09T01:04:43;93185.97;;;18.46;92.07
15568;BME280;7885;42.596;23.044;2022-09-09T01:07:15;93168.28;;;18.31;92.42
15568;BME280;7885;42.596;23.044;2022-09-09T01:09:52;93187.81;;;18.37;91.21
15568;BME280;7885;42.596;23.044;2022-09-09T01:19:07;93190.31;;;18.31;95.12
15568;BME280;7885;42.596;23.044;2022-09-09T01:21:42;93191.16;;;18.44;94.11
15568;BME280;7885;42.596;23.044;2022-09-09T01:24:20;93185.28;;;18.42;92.16
15568;BME280;7885;42.596;23.044;2022-09-09T01:26:51;93176.31;;;18.26;92.86
15568;BME280;7885;42.596;23.044;2022-09-09T01:29:21;93167.16;;;18.16;92.52
15568;BME280;7885;42.596;23.044;2022-09-09T01:31:54;93182.56;;;18.13;92.29
15568;BME280;7885;42.596;23.044;2022-09-09T01:34:22;93180.75;;;18.07;91.47
15568;BME280;7885;42.596;23.044;2022-09-09T01:36:56;93169.84;;;18.03;93.24
15568;BME280;7885;42.596;23.044;2022-09-09T01:46:09;93188.03;;;18.01;94.08
15568;BME280;7885;42.596;23.044;2022-09-09T01:48:37;93192.41;;;17.98;94.85
15568;BME280;7885;42.596;23.044;2022-09-09T01:51:05;93180.63;;;17.98;95.29
15568;BME280;7885;42.596;23.044;2022-09-09T01:53:31;93178.56;;;18.02;95.78
15568;BME280;7885;42.596;23.044;2022-09-09T01:56:05;93180.50;;;17.89;95.70
15568;BME280;7885;42.596;23.044;2022-09-09T01:58:46;93184.44;;;17.88;96.05
15568;BME280;7885;42.596;23.044;2022-09-09T02:01:25;93183.56;;;17.91;95.99
15568;BME280;7885;42.596;23.044;2022-09-09T02:03:57;93189.16;;;17.87;96.34
15568;BME280;7885;42.596;23.044;2022-09-09T02:06:27;93180.69;;;17.82;96.63
15568;BME280;7885;42.596;23.044;2022-09-09T02:08:58;93191.41;;;17.92;97.02
15568;BME280;7885;42.596;23.044;2022-09-09T02:11:27;93186.56;;;17.96;94.37
15568;BME280;7885;42.596;23.044;2022-09-09T02:13:57;93186.66;;;17.93;96.35
15568;BME280;7885;42.596;23.044;2022-09-09T02:16:30;93175.16;;;17.82;96.55
15568;BME280;7885;42.596;23.044;2022-09-09T02:19:01;93166.09;;;17.69;96.38
15568;BME280;7885;42.596;23.044;2022-09-09T02:21:31;93175.53;;;17.67;95.85
15568;BME280;7885;42.596;23.044;2022-09-09T02:24:02;93188.59;;;17.80;95.34
15568;BME280;7885;42.596;23.044;2022-09-09T02:26:31;93202.19;;;17.71;94.42
15568;BME280;7885;42.596;23.044;2022-09-09T02:29:01;93205.47;;;17.65;95.68
15568;BME280;7885;42.596;23.044;2022-09-09T02:31:31;93189.91;;;17.59;97.82
15568;BME280;7885;42.596;23.044;2022-09-09T02:34:01;93201.41;;;17.70;98.48
15568;BME280;7885;42.596;23.044;2022-09-09T02:36:32;93127.22;;;17.18;98.10
15568;BME280;7885;42.596;23.044;2022-09-09T02:39:01;93187.66;;;17.54;95.68
15568;BME280;7885;42.596;23.044;2022-09-09T02:41:32;93201.97;;;17.65;97.13
15568;BME280;7885;42.596;23.044;2022-09-09T02:43:59;93175.03;;;17.40;96.68
15568;BME280;7885;42.596;23.044;2022-09-09T02:46:39;93211.97;;;17.55;98.47
15568;BME280;7885;42.596;23.044;2022-09-09T02:49:13;93204.09;;;17.57;98.82
15568;BME280;7885;42.596;23.044;2022-09-09T02:51:51;93195.84;;;17.57;98.33
15568;BME280;7885;42.596;23.044;2022-09-09T02:54:26;93200.91;;;17.59;96.18
15568;BME280;7885;42.596;23.044;2022-09-09T02:56:59;93200.66;;;17.37;97.92
15568;BME280;7885;42.596;23.044;2022-09-09T02:59:29;93200.13;;;17.26;97.75
15568;BME280;7885;42.596;23.044;2022-09-09T03:01:58;93161.69;;;16.90;97.99
15568;BME280;7885;42.596;23.044;2022-09-09T03:04:25;93196.16;;;17.11;97.59
15568;BME280;7885;42.596;23.044;2022-09-09T03:06:51;93183.63;;;17.10;97.88
15568;BME280;7885;42.596;23.044;2022-09-09T03:09:18;93190.41;;;17.05;96.86
15568;BME280;7885;42.596;23.044;2022-09-09T03:11:45;93180.50;;;16.92;97.15
15568;BME280;7885;42.596;23.044;2022-09-09T03:14:11;93194.50;;;16.97;97.74
15568;BME280;7885;42.596;23.044;2022-09-09T03:16:38;93191.06;;;16.93;97.77
15568;BME280;7885;42.596;23.044;2022-09-09T03:19:06;93198.38;;;17.00;98.58
15568;BME280;7885;42.596;23.044;2022-09-09T03:21:33;93203.72;;;17.07;99.49
15568;BME280;7885;42.596;23.044;2022-09-09T03:24:00;93198.03;;;16.98;99.78
15568;BME280;7885;42.596;23.044;2022-09-09T03:26:28;93210.44;;;17.06;100.00
15568;BME280;7885;42.596;23.044;2022-09-09T03:28:55;93204.06;;;17.09;99.63
15568;BME280;7885;42.596;23.044;2022-09-09T03:31:22;93202.19;;;17.06;99.06
15568;BME280;7885;42.596;23.044;2022-09-09T03:33:49;93199.84;;;17.04;99.30
15568;BME280;7885;42.596;23.044;2022-09-09T03:36:17;93199.84;;;17.04;95.96
15568;BME280;7885;42.596;23.044;2022-09-09T03:38:44;93210.16;;;17.00;97.34
15568;BME280;7885;42.596;23.044;2022-09-09T03:41:10;93175.19;;;16.85;99.08
15568;BME280;7885;42.596;23.044;2022-09-09T03:43:38;93199.22;;;16.97;100.00
15568;BME280;7885;42.596;23.044;2022-09-09T03:46:04;93206.53;;;17.03;97.35
15568;BME280;7885;42.596;23.044;2022-09-09T03:48:31;93190.97;;;16.97;99.88
15568;BME280;7885;42.596;23.044;2022-09-09T03:50:58;93187.03;;;16.98;100.00
15568;BME280;7885;42.596;23.044;2022-09-09T03:53:29;93192.47;;;17.01;100.00
15568;BME280;7885;42.596;23.044;2022-09-09T03:55:56;93191.88;;;17.10;100.00
15568;BME280;7885;42.596;23.044;2022-09-09T03:58:26;93187.91;;;17.11;100.00
15568;BME280;7885;42.596;23.044;2022-09-09T04:04:21;93186.72;;;17.12;98.67
15568;BME280;7885;42.596;23.044;2022-09-09T04:06:48;93198.03;;;17.14;97.73
15568;BME280;7885;42.596;23.044;2022-09-09T04:09:17;93196.78;;;17.18;98.50
15568;BME280;7885;42.596;23.044;2022-09-09T04:11:44;93200.63;;;17.21;98.65
15568;BME280;7885;42.596;23.044;2022-09-09T04:14:11;93197.19;;;17.17;99.54
15568;BME280;7885;42.596;23.044;2022-09-09T04:16:38;93202.59;;;17.21;99.10
15568;BME280;7885;42.596;23.044;2022-09-09T04:19:08;93191.97;;;17.23;100.00
15568;BME280;7885;42.596;23.044;2022-09-09T04:21:38;93134.28;;;16.87;100.00
15568;BME280;7885;42.596;23.044;2022-09-09T04:24:06;93202.78;;;17.30;100.00
15568;BME280;7885;42.596;23.044;2022-09-09T04:26:35;93182.06;;;17.25;100.00
15568;BME280;7885;42.596;23.044;2022-09-09T04:29:03;93195.72;;;17.45;99.50
15568;BME280;7885;42.596;23.044;2022-09-09T04:31:30;93197.75;;;17.60;99.45
15568;BME280;7885;42.596;23.044;2022-09-09T04:33:57;93200.81;;;17.62;99.18
15568;BME280;7885;42.596;23.044;2022-09-09T04:36:27;93211.47;;;17.77;99.83
15568;BME280;7885;42.596;23.044;2022-09-09T04:38:54;93209.91;;;17.92;99.00
15568;BME280;7885;42.596;23.044;2022-09-09T04:41:21;93203.84;;;17.97;98.66
15568;BME280;7885;42.596;23.044;2022-09-09T04:43:49;93210.56;;;18.12;97.85
15568;BME280;7885;42.596;23.044;2022-09-09T04:46:18;93206.03;;;18.18;97.42
15568;BME280;7885;42.596;23.044;2022-09-09T04:48:45;93203.00;;;18.29;97.36
15568;BME280;7885;42.596;23.044;2022-09-09T04:51:13;93199.81;;;18.30;97.30
15568;BME280;7885;42.596;23.044;2022-09-09T04:53:40;93196.50;;;18.35;96.71
15568;BME280;7885;42.596;23.044;2022-09-09T04:56:08;93191.34;;;18.37;96.76
15568;BME280;7885;42.596;23.044;2022-09-09T04:58:37;93185.28;;;18.42;96.66
15568;BME280;7885;42.596;23.044;2022-09-09T05:01:09;93178.81;;;18.49;96.53
15568;BME280;7885;42.596;23.044;2022-09-09T05:03:36;93151.78;;;18.44;96.55
15568;BME280;7885;42.596;23.044;2022-09-09T05:06:08;93157.53;;;18.49;96.38
15568;BME280;7885;42.596;23.044;2022-09-09T05:08:36;93171.56;;;18.55;96.57
15568;BME280;7885;42.596;23.044;2022-09-09T05:11:04;93174.78;;;18.66;97.14
15568;BME280;7885;42.596;23.044;2022-09-09T05:13:30;93182.22;;;18.82;95.57
15568;BME280;7885;42.596;23.044;2022-09-09T05:16:14;93150.53;;;18.74;94.69
15568;BME280;7885;42.596;23.044;2022-09-09T05:18:41;93176.78;;;18.91;94.74
15568;BME280;7885;42.596;23.044;2022-09-09T05:21:09;93184.63;;;18.92;94.90
15568;BME280;7885;42.596;23.044;2022-09-09T05:23:36;93180.00;;;18.89;94.06
15568;BME280;7885;42.596;23.044;2022-09-09T05:26:04;93180.75;;;18.90;93.78
15568;BME280;7885;42.596;23.044;2022-09-09T05:28:33;93176.03;;;18.90;93.49
15568;BME280;7885;42.596;23.044;2022-09-09T05:31:02;93172.47;;;18.77;93.97
15568;BME280;7885;42.596;23.044;2022-09-09T05:33:31;93163.69;;;18.82;93.34
15568;BME280;7885;42.596;23.044;2022-09-09T05:35:59;93167.22;;;18.95;93.55
15568;BME280;7885;42.596;23.044;2022-09-09T05:38:27;93165.97;;;18.96;93.38
15568;BME280;7885;42.596;23.044;2022-09-09T05:44:15;93187.19;;;19.12;92.92
15568;BME280;7885;42.596;23.044;2022-09-09T05:46:42;93191.47;;;19.26;93.01
15568;BME280;7885;42.596;23.044;2022-09-09T05:49:11;93196.00;;;19.32;91.59
15568;BME280;7885;42.596;23.044;2022-09-09T05:51:38;93182.50;;;19.34;90.94
15568;BME280;7885;42.596;23.044;2022-09-09T05:54:05;93178.53;;;19.35;90.93
15568;BME280;7885;42.596;23.044;2022-09-09T05:56:32;93192.38;;;19.48;90.13
15568;BME280;7885;42.596;23.044;2022-09-09T05:58:58;93204.84;;;19.52;89.61
15568;BME280;7885;42.596;23.044;2022-09-09T06:01:27;93187.06;;;19.53;89.43
15568;BME280;7885;42.596;23.044;2022-09-09T06:03:54;93208.75;;;19.77;89.47
15568;BME280;7885;42.596;23.044;2022-09-09T06:06:24;93164.28;;;19.62;88.49
15568;BME280;7885;42.596;23.044;2022-09-09T06:15:35;93208.25;;;20.38;87.74
15568;BME280;7885;42.596;23.044;2022-09-09T06:18:02;93197.97;;;20.60;87.57
15568;BME280;7885;42.596;23.044;2022-09-09T06:20:29;93193.91;;;20.74;86.96
15568;BME280;7885;42.596;23.044;2022-09-09T06:22:58;93200.63;;;20.94;86.55
15568;BME280;7885;42.596;23.044;2022-09-09T06:25:25;93192.47;;;21.12;86.42
15568;BME280;7885;42.596;23.044;2022-09-09T06:27:52;93190.84;;;21.33;86.64
15568;BME280;7885;42.596;23.044;2022-09-09T06:30:18;93192.16;;;21.50;85.90
15568;BME280;7885;42.596;23.044;2022-09-09T06:32:45;93183.72;;;21.63;85.18
15568;BME280;7885;42.596;23.044;2022-09-09T06:35:12;93199.91;;;21.83;84.86
15568;BME280;7885;42.596;23.044;2022-09-09T06:37:39;93195.94;;;21.93;82.76
15568;BME280;7885;42.596;23.044;2022-09-09T06:40:08;93199.53;;;22.11;82.15
15568;BME280;7885;42.596;23.044;2022-09-09T06:42:35;93202.59;;;22.32;81.02
15568;BME280;7885;42.596;23.044;2022-09-09T06:45:02;93192.13;;;22.45;80.50
15568;BME280;7885;42.596;23.044;2022-09-09T06:47:28;93202.16;;;22.70;79.72
15568;BME280;7885;42.596;23.044;2022-09-09T06:49:55;93217.25;;;22.78;77.23
15568;BME280;7885;42.596;23.044;2022-09-09T06:52:22;93212.31;;;22.73;77.97
15568;BME280;7885;42.596;23.044;2022-09-09T06:54:50;93217.25;;;22.96;77.83
15568;BME280;7885;42.596;23.044;2022-09-09T06:57:18;93219.19;;;23.13;77.47
15568;BME280;7885;42.596;23.044;2022-09-09T06:59:44;93218.03;;;23.38;75.88
15568;BME280;7885;42.596;23.044;2022-09-09T07:02:11;93221.13;;;23.40;71.54
15568;BME280;7885;42.596;23.044;2022-09-09T07:04:38;93206.78;;;23.42;69.74
15568;BME280;7885;42.596;23.044;2022-09-09T07:07:05;93179.56;;;23.13;70.13
15568;BME280;7885;42.596;23.044;2022-09-09T07:09:33;93218.31;;;23.49;69.53
15568;BME280;7885;42.596;23.044;2022-09-09T07:12:00;93195.50;;;23.36;68.25
15568;BME280;7885;42.596;23.044;2022-09-09T07:14:28;93191.78;;;23.39;69.21
15568;BME280;7885;42.596;23.044;2022-09-09T07:16:55;93205.94;;;23.59;69.50
15568;BME280;7885;42.596;23.044;2022-09-09T07:19:22;93205.50;;;23.85;67.58
15568;BME280;7885;42.596;23.044;2022-09-09T07:21:49;93209.69;;;24.13;68.05
15568;BME280;7885;42.596;23.044;2022-09-09T07:24:16;93213.22;;;24.37;68.07
15568;BME280;7885;42.596;23.044;2022-09-09T07:26:42;93213.06;;;24.55;65.29
15568;BME280;7885;42.596;23.044;2022-09-09T07:29:11;93216.06;;;24.67;65.15
15568;BME280;7885;42.596;23.044;2022-09-09T07:31:41;93152.19;;;24.10;66.01
15568;BME280;7885;42.596;23.044;2022-09-09T07:34:08;93212.84;;;23.97;64.99
15568;BME280;7885;42.596;23.044;2022-09-09T07:36:36;93221.97;;;24.21;66.06
15568;BME280;7885;42.596;23.044;2022-09-09T07:39:05;93223.31;;;24.49;64.44
15568;BME280;7885;42.596;23.044;2022-09-09T07:41:34;93222.44;;;24.43;64.82
15568;BME280;7885;42.596;23.044;2022-09-09T07:44:04;93227.13;;;24.76;64.32
15568;BME280;7885;42.596;23.044;2022-09-09T07:46:31;93173.69;;;25.01;62.16
15568;BME280;7885;42.596;23.044;2022-09-09T07:49:00;93227.84;;;26.08;60.10
15568;BME280;7885;42.596;23.044;2022-09-09T07:51:29;93208.09;;;26.26;58.61
15568;BME280;7885;42.596;23.044;2022-09-09T07:53:58;93224.28;;;26.22;58.20
15568;BME280;7885;42.596;23.044;2022-09-09T07:56:26;93213.69;;;26.26;58.05
15568;BME280;7885;42.596;23.044;2022-09-09T07:58:54;93210.81;;;25.86;59.62
15568;BME280;7885;42.596;23.044;2022-09-09T08:01:24;93226.03;;;26.05;59.75
15568;BME280;7885;42.596;23.044;2022-09-09T08:03:56;93221.75;;;25.54;60.26
15568;BME280;7885;42.596;23.044;2022-09-09T08:06:26;93175.72;;;24.86;62.40
15568;BME280;7885;42.596;23.044;2022-09-09T08:08:53;93216.72;;;25.00;63.42
15568;BME280;7885;42.596;23.044;2022-09-09T08:11:22;93215.56;;;24.92;65.87
15568;BME280;7885;42.596;23.044;2022-09-09T08:13:50;93217.19;;;24.84;63.19
15568;BME280;7885;42.596;23.044;2022-09-09T08:16:18;93221.63;;;25.20;63.25
15568;BME280;7885;42.596;23.044;2022-09-09T08:18:47;93194.31;;;25.68;63.25
15568;BME280;7885;42.596;23.044;2022-09-09T08:21:15;93220.41;;;25.99;59.21
15568;BME280;7885;42.596;23.044;2022-09-09T08:23:45;93219.53;;;26.28;59.43
15568;BME280;7885;42.596;23.044;2022-09-09T08:26:14;93205.81;;;26.10;59.76
15568;BME280;7885;42.596;23.044;2022-09-09T08:28:42;93212.56;;;26.03;61.43
15568;BME280;7885;42.596;23.044;2022-09-09T08:31:11;93219.75;;;26.25;60.23
15568;BME280;7885;42.596;23.044;2022-09-09T08:33:39;93211.47;;;26.30;58.66
15568;BME280;7885;42.596;23.044;2022-09-09T08:36:10;93213.88;;;26.83;58.98
15568;BME280;7885;42.596;23.044;2022-09-09T08:38:37;93210.59;;;28.36;53.41
15568;BME280;7885;42.596;23.044;2022-09-09T08:41:17;93213.44;;;29.12;52.25
15568;BME280;7885;42.596;23.044;2022-09-09T08:44:00;93205.97;;;30.70;48.32
15568;BME280;7885;42.596;23.044;2022-09-09T08:46:33;93186.91;;;32.39;42.92
15568;BME280;7885;42.596;23.044;2022-09-09T08:49:09;93196.88;;;32.89;40.00
15568;BME280;7885;42.596;23.044;2022-09-09T08:51:41;93210.69;;;33.67;40.12
15568;BME280;7885;42.596;23.044;2022-09-09T08:54:08;93207.06;;;34.17;38.04
15568;BME280;7885;42.596;23.044;2022-09-09T08:56:37;93208.81;;;34.20;37.97
15568;BME280;7885;42.596;23.044;2022-09-09T08:59:04;93217.41;;;33.64;37.98
15568;BME280;7885;42.596;23.044;2022-09-09T09:01:44;93194.69;;;32.76;41.11
15568;BME280;7885;42.596;23.044;2022-09-09T09:04:29;93213.31;;;32.12;41.50
15568;BME280;7885;42.596;23.044;2022-09-09T09:07:08;93206.06;;;31.57;42.92
15568;BME280;7885;42.596;23.044;2022-09-09T09:09:46;93153.03;;;30.85;44.10
15568;BME280;7885;42.596;23.044;2022-09-09T09:12:21;93203.25;;;31.16;46.01
15568;BME280;7885;42.596;23.044;2022-09-09T09:14:50;93205.28;;;31.57;45.05
15568;BME280;7885;42.596;23.044;2022-09-09T09:17:18;93171.91;;;30.90;43.58
15568;BME280;7885;42.596;23.044;2022-09-09T09:19:47;93184.59;;;30.44;46.02
15568;BME280;7885;42.596;23.044;2022-09-09T09:22:18;93189.22;;;29.14;49.03
15568;BME280;7885;42.596;23.044;2022-09-09T09:24:51;93210.94;;;28.54;50.67
15568;BME280;7885;42.596;23.044;2022-09-09T09:27:25;93187.41;;;27.93;52.50
15568;BME280;7885;42.596;23.044;2022-09-09T09:29:58;93189.38;;;27.44;55.13
15568;BME280;7885;42.596;23.044;2022-09-09T09:35:56;93179.31;;;28.00;53.84
15568;BME280;7885;42.596;23.044;2022-09-09T09:38:26;93191.16;;;28.21;53.72
15568;BME280;7885;42.596;23.044;2022-09-09T09:40:55;93182.66;;;28.04;53.58
15568;BME280;7885;42.596;23.044;2022-09-09T09:43:27;93183.38;;;27.63;54.20
15568;BME280;7885;42.596;23.044;2022-09-09T09:45:54;93148.22;;;26.93;55.30
15568;BME280;7885;42.596;23.044;2022-09-09T09:48:24;93192.00;;;27.02;55.77
15568;BME280;7885;42.596;23.044;2022-09-09T09:50:52;93193.13;;;26.90;56.20
15568;BME280;7885;42.596;23.044;2022-09-09T09:53:22;93181.03;;;26.98;56.58
15568;BME280;7885;42.596;23.044;2022-09-09T09:55:54;93155.59;;;26.96;58.47
15568;BME280;7885;42.596;23.044;2022-09-09T09:58:21;93185.09;;;27.23;59.48
15568;BME280;7885;42.596;23.044;2022-09-09T10:00:51;93186.16;;;27.31;59.00
15568;BME280;7885;42.596;23.044;2022-09-09T10:03:22;93196.63;;;27.36;58.00
15568;BME280;7885;42.596;23.044;2022-09-09T10:05:50;93194.09;;;27.38;55.99
15568;BME280;7885;42.596;23.044;2022-09-09T10:08:17;93201.94;;;27.34;56.42
15568;BME280;7885;42.596;23.044;2022-09-09T10:11:06;93209.41;;;27.17;56.94
15568;BME280;7885;42.596;23.044;2022-09-09T10:13:43;93158.94;;;26.75;56.83
15568;BME280;7885;42.596;23.044;2022-09-09T10:16:28;93210.50;;;26.79;56.80
15568;BME280;7885;42.596;23.044;2022-09-09T10:19:00;93208.03;;;26.61;57.49
15568;BME280;7885;42.596;23.044;2022-09-09T10:22:00;93207.53;;;26.42;58.05
15568;BME280;7885;42.596;23.044;2022-09-09T10:24:51;93206.00;;;26.41;58.83
15568;BME280;7885;42.596;23.044;2022-09-09T10:27:26;93217.47;;;26.43;58.55
15568;BME280;7885;42.596;23.044;2022-09-09T10:30:09;93182.84;;;26.00;59.17
15568;BME280;7885;42.596;23.044;2022-09-09T10:32:42;93155.09;;;25.71;59.81
15568;BME280;7885;42.596;23.044;2022-09-09T10:35:19;93230.38;;;26.06;60.16
15568;BME280;7885;42.596;23.044;2022-09-09T10:38:12;93224.03;;;26.05;60.74
15568;BME280;7885;42.596;23.044;2022-09-09T10:40:44;93221.31;;;26.11;60.52
15568;BME280;7885;42.596;23.044;2022-09-09T10:43:24;93233.63;;;26.04;61.01
15568;BME280;7885;42.596;23.044;2022-09-09T10:46:02;93214.88;;;26.05;62.88
15568;BME280;7885;42.596;23.044;2022-09-09T10:48:45;93206.00;;;26.06;61.90
15568;BME280;7885;42.596;23.044;2022-09-09T10:51:22;93232.03;;;26.33;62.43
15568;BME280;7885;42.596;23.044;2022-09-09T10:53:58;93233.00;;;26.30;61.78
15568;BME280;7885;42.596;23.044;2022-09-09T10:56:31;93241.09;;;26.28;62.54
15568;BME280;7885;42.596;23.044;2022-09-09T10:59:01;93244.22;;;26.35;62.95
15568;BME280;7885;42.596;23.044;2022-09-09T11:01:32;93169.47;;;25.84;61.36
15568;BME280;7885;42.596;23.044;2022-09-09T11:04:10;93237.25;;;26.25;62.36
15568;BME280;7885;42.596;23.044;2022-09-09T11:06:42;93239.22;;;26.19;62.16
15568;BME280;7885;42.596;23.044;2022-09-09T11:09:16;93204.06;;;25.92;62.13
15568;BME280;7885;42.596;23.044;2022-09-09T11:11:49;93230.38;;;26.06;63.63
15568;BME280;7885;42.596;23.044;2022-09-09T11:14:21;93218.66;;;26.02;63.23
15568;BME280;7885;42.596;23.044;2022-09-09T11:16:52;93205.94;;;26.01;64.21
15568;BME280;7885;42.596;23.044;2022-09-09T11:19:26;93197.44;;;26.10;65.68
15568;BME280;7885;42.596;23.044;2022-09-09T11:21:55;93201.41;;;26.38;64.82
15568;BME280;7885;42.596;23.044;2022-09-09T11:24:28;93195.66;;;26.68;65.87
15568;BME280;7885;42.596;23.044;2022-09-09T11:26:59;93191.06;;;26.85;65.33
15568;BME280;7885;42.596;23.044;2022-09-09T11:30:04;93165.31;;;27.01;62.82
15568;BME280;7885;42.596;23.044;2022-09-09T11:33:00;93143.31;;;27.14;61.99
15568;BME280;7885;42.596;23.044;2022-09-09T11:35:38;93150.50;;;27.52;61.32
15568;BME280;7885;42.596;23.044;2022-09-09T11:38:25;93148.59;;;27.69;59.79
15568;BME280;7885;42.596;23.044;2022-09-09T11:40:58;93146.31;;;27.68;60.16
15568;BME280;7885;42.596;23.044;2022-09-09T11:43:29;93173.19;;;27.59;59.04
15568;BME280;7885;42.596;23.044;2022-09-09T11:45:59;93164.00;;;27.28;61.76
15568;BME280;7885;42.596;23.044;2022-09-09T11:48:32;93145.84;;;26.60;62.55
15568;BME280;7885;42.596;23.044;2022-09-09T11:51:04;93143.50;;;26.33;65.73
15568;BME280;7885;42.596;23.044;2022-09-09T11:53:33;93105.78;;;25.83;64.71
15568;BME280;7885;42.596;23.044;2022-09-09T11:56:09;93142.81;;;26.03;64.92
15568;BME280;7885;42.596;23.044;2022-09-09T11:58:43;93147.66;;;26.03;64.22
15568;BME280;7885;42.596;23.044;2022-09-09T12:01:35;93142.78;;;25.98;63.44
15568;BME280;7885;42.596;23.044;2022-09-09T12:07:00;93112.50;;;25.91;64.69
15568;BME280;7885;42.596;23.044;2022-09-09T12:09:33;93134.59;;;26.14;64.31
15568;BME280;7885;42.596;23.044;2022-09-09T12:12:26;93139.41;;;26.14;64.78
15568;BME280;7885;42.596;23.044;2022-09-09T12:14:59;93145.16;;;26.05;65.96
15568;BME280;7885;42.596;23.044;2022-09-09T12:17:28;93140.75;;;25.98;65.91
15568;BME280;7885;42.596;23.044;2022-09-09T12:20:06;93139.06;;;25.86;66.25
15568;BME280;7885;42.596;23.044;2022-09-09T12:22:43;93153.34;;;25.74;67.93
15568;BME280;7885;42.596;23.044;2022-09-09T12:25:20;93133.09;;;25.58;66.56
15568;BME280;7885;42.596;23.044;2022-09-09T12:28:01;93144.81;;;25.62;68.21
15568;BME280;7885;42.596;23.044;2022-09-09T12:30:33;93140.34;;;25.21;69.25
15568;BME280;7885;42.596;23.044;2022-09-09T12:33:02;93144.78;;;24.84;70.72
15568;BME280;7885;42.596;23.044;2022-09-09T12:35:29;93139.19;;;24.69;72.49
15568;BME280;7885;42.596;23.044;2022-09-09T12:38:00;93119.38;;;24.38;74.49
15568;BME280;7885;42.596;23.044;2022-09-09T12:40:29;93086.88;;;24.29;72.79
15568;BME280;7885;42.596;23.044;2022-09-09T12:42:57;93130.28;;;24.65;75.32
15568;BME280;7885;42.596;23.044;2022-09-09T12:45:28;93108.69;;;24.75;73.50
15568;BME280;7885;42.596;23.044;2022-09-09T12:47:58;93106.97;;;24.92;74.04
15568;BME280;7885;42.596;23.044;2022-09-09T12:50:29;93039.47;;;24.53;71.79
15568;BME280;7885;42.596;23.044;2022-09-09T12:52:59;93105.22;;;24.50;71.85
15568;BME280;7885;42.596;23.044;2022-09-09T12:55:29;93102.50;;;24.41;73.29
15568;BME280;7885;42.596;23.044;2022-09-09T12:57:59;93086.50;;;24.36;72.55
15568;BME280;7885;42.596;23.044;2022-09-09T13:00:29;93093.41;;;24.55;72.57
15568;BME280;7885;42.596;23.044;2022-09-09T13:02:57;93087.94;;;24.61;74.46
15568;BME280;7885;42.596;23.044;2022-09-09T13:05:26;93093.72;;;24.57;71.65
15568;BME280;7885;42.596;23.044;2022-09-09T13:08:02;93093.03;;;24.62;72.99
15568;BME280;7885;42.596;23.044;2022-09-09T13:10:31;93083.44;;;24.63;72.19
15568;BME280;7885;42.596;23.044;2022-09-09T13:13:00;93078.91;;;24.51;71.27
15568;BME280;7885;42.596;23.044;2022-09-09T13:15:28;93060.06;;;24.17;71.85
15568;BME280;7885;42.596;23.044;2022-09-09T13:17:57;93083.09;;;24.18;73.36
15568;BME280;7885;42.596;23.044;2022-09-09T13:20:27;93058.28;;;23.90;73.64
15568;BME280;7885;42.596;23.044;2022-09-09T13:22:56;93078.25;;;24.03;75.45
15568;BME280;7885;42.596;23.044;2022-09-09T13:25:26;93075.00;;;24.05;74.64
15568;BME280;7885;42.596;23.044;2022-09-09T13:27:57;93071.16;;;24.02;76.14
15568;BME280;7885;42.596;23.044;2022-09-09T13:30:26;93054.56;;;23.70;75.49
15568;BME280;7885;42.596;23.044;2022-09-09T13:33:17;93057.69;;;23.86;77.70
15568;BME280;7885;42.596;23.044;2022-09-09T13:35:47;93052.84;;;23.96;78.22
15568;BME280;7885;42.596;23.044;2022-09-09T13:38:16;93024.16;;;23.90;77.51
15568;BME280;7885;42.596;23.044;2022-09-09T13:40:54;93041.63;;;24.05;72.24
15568;BME280;7885;42.596;23.044;2022-09-09T13:43:23;93051.69;;;24.02;73.11
15568;BME280;7885;42.596;23.044;2022-09-09T13:45:55;93040.56;;;24.02;75.04
15568;BME280;7885;42.596;23.044;2022-09-09T13:48:23;92956.81;;;23.56;74.76
15568;BME280;7885;42.596;23.044;2022-09-09T13:50:55;93064.50;;;24.38;73.63
15568;BME280;7885;42.596;23.044;2022-09-09T13:53:22;93070.09;;;24.68;72.70
15568;BME280;7885;42.596;23.044;2022-09-09T13:55:49;93056.56;;;24.90;70.52